createdAt,value
2022-08-25T00:01:58.409Z,97641.63
2022-08-25T00:04:26.715Z,97647.91
2022-08-25T00:06:59.322Z,97647.47
2022-08-25T00:09:29.103Z,97647.78
2022-08-25T00:11:56.491Z,97647.47
2022-08-25T00:14:29.990Z,97644.44
2022-08-25T00:16:57.924Z,97645.22
2022-08-25T00:19:32.227Z,97650.91
2022-08-25T00:22:01.472Z,97654.31
2022-08-25T00:24:29.697Z,97650.78
2022-08-25T00:26:59.282Z,97655.03
2022-08-25T00:29:27.756Z,97649.41
2022-08-25T00:31:58.057Z,97640.63
2022-08-25T00:34:33.108Z,97644.56
2022-08-25T00:37:01.982Z,97641.06
2022-08-25T00:39:29.394Z,97639.31
2022-08-25T00:41:58.264Z,97647.38
2022-08-25T00:44:30.246Z,97643.75
2022-08-25T00:47:01.144Z,97636.50
2022-08-25T00:49:46.514Z,97639.63
2022-08-25T00:52:31.889Z,97631.81
2022-08-25T00:55:21.822Z,97634.63
2022-08-25T00:58:11.853Z,97629.38
2022-08-25T01:00:44.014Z,97624.06
2022-08-25T01:03:12.140Z,97630.38
2022-08-25T01:05:41.734Z,97620.59
2022-08-25T01:08:10.263Z,97624.28
2022-08-25T01:10:42.379Z,97632.13
2022-08-25T01:13:40.805Z,97630.09
2022-08-25T01:16:09.114Z,97631.88
2022-08-25T01:19:04.358Z,97631.72
2022-08-25T01:21:39.778Z,97639.44
2022-08-25T01:24:09.584Z,97625.56
2022-08-25T01:26:37.218Z,97620.16
2022-08-25T01:29:21.544Z,97621.28
2022-08-25T01:31:59.789Z,97617.53
2022-08-25T01:34:32.685Z,97619.09
2022-08-25T01:37:01.253Z,97625.84
2022-08-25T01:39:31.228Z,97626.50
2022-08-25T01:42:09.234Z,97619.53
2022-08-25T01:44:42.683Z,97612.09
2022-08-25T01:47:11.512Z,97616.94
2022-08-25T01:49:39.002Z,97615.72
2022-08-25T01:52:36.278Z,97612.69
2022-08-25T01:55:04.875Z,97616.53
2022-08-25T01:57:32.201Z,97609.09
2022-08-25T02:00:00.564Z,97607.19
2022-08-25T02:02:28.244Z,97612.22
2022-08-25T02:04:58.978Z,97612.38
2022-08-25T02:07:27.277Z,97615.72
2022-08-25T02:09:54.567Z,97615.72
2022-08-25T02:12:21.928Z,97610.03
2022-08-25T02:14:49.156Z,97609.69
2022-08-25T02:17:17.352Z,97605.72
2022-08-25T02:19:44.588Z,97603.34
2022-08-25T02:22:11.899Z,97609.22
2022-08-25T02:24:39.240Z,97613.34
2022-08-25T02:27:06.653Z,97609.34
2022-08-25T02:29:34.201Z,97602.84
2022-08-25T02:32:02.110Z,97604.75
2022-08-25T02:34:29.440Z,97609.16
2022-08-25T02:36:56.796Z,97608.03
2022-08-25T02:39:24.273Z,97606.78
2022-08-25T02:41:51.564Z,97609.59
2022-08-25T02:44:18.827Z,97610.84
2022-08-25T02:46:46.623Z,97607.44
2022-08-25T02:49:13.900Z,97603.19
2022-08-25T02:51:41.250Z,97597.19
2022-08-25T02:54:09.207Z,97603.66
2022-08-25T02:56:36.816Z,97593.13
2022-08-25T02:59:04.669Z,97604.78
2022-08-25T03:01:33.097Z,97596.09
2022-08-25T03:04:01.920Z,97603.03
2022-08-25T03:06:29.827Z,97601.19
2022-08-25T03:08:57.437Z,97602.28
2022-08-25T03:11:25.625Z,97605.50
2022-08-25T03:13:54.027Z,97607.75
2022-08-25T03:16:21.562Z,97610.75
2022-08-25T03:18:49.228Z,97601.19
2022-08-25T03:21:17.077Z,97610.50
2022-08-25T03:23:45.987Z,97608.06
2022-08-25T03:26:31.910Z,97601.53
2022-08-25T03:28:59.263Z,97608.19
2022-08-25T03:31:27.845Z,97606.28
2022-08-25T03:33:55.840Z,97600.78
2022-08-25T03:36:23.559Z,97604.09
2022-08-25T03:38:52.409Z,97609.00
2022-08-25T03:41:29.091Z,97611.63
2022-08-25T03:43:57.235Z,97610.56
2022-08-25T03:46:47.076Z,97609.00
2022-08-25T03:49:19.767Z,97602.53
2022-08-25T03:51:51.155Z,97605.34
2022-08-25T03:54:22.858Z,97605.81
2022-08-25T03:56:50.252Z,97609.81
2022-08-25T03:59:19.114Z,97596.72
2022-08-25T04:01:52.651Z,97605.25
2022-08-25T04:04:22.521Z,97613.25
2022-08-25T04:06:49.842Z,97609.00
2022-08-25T04:09:17.075Z,97610.06
2022-08-25T04:11:44.406Z,97603.47
2022-08-25T04:14:12.976Z,97601.91
2022-08-25T04:16:43.685Z,97596.22
2022-08-25T04:19:11.293Z,97602.38
2022-08-25T04:21:40.714Z,97603.50
2022-08-25T04:24:11.379Z,97604.75
2022-08-25T04:26:49.803Z,97596.84
2022-08-25T04:29:23.452Z,97594.63
2022-08-25T04:31:52.594Z,97591.81
2022-08-25T04:34:30.390Z,97594.34
2022-08-25T04:37:05.572Z,97589.13
2022-08-25T04:39:33.486Z,97595.28
2022-08-25T04:42:01.420Z,97601.09
2022-08-25T04:44:30.807Z,97586.13
2022-08-25T04:46:59.192Z,97587.25
2022-08-25T04:49:27.123Z,97591.13
2022-08-25T04:51:54.425Z,97599.63
2022-08-25T04:54:21.826Z,97603.41
2022-08-25T04:56:54.172Z,97603.81
2022-08-25T04:59:22.202Z,97609.06
2022-08-25T05:01:52.328Z,97610.81
2022-08-25T05:04:28.503Z,97601.66
2022-08-25T05:06:57.398Z,97606.56
2022-08-25T05:09:26.592Z,97609.84
2022-08-25T05:11:54.964Z,97610.19
2022-08-25T05:14:26.294Z,97608.56
2022-08-25T05:16:55.478Z,97602.19
2022-08-25T05:19:26.691Z,97604.69
2022-08-25T05:21:54.299Z,97599.13
2022-08-25T05:24:22.366Z,97600.13
2022-08-25T05:26:49.890Z,97603.25
2022-08-25T05:29:17.584Z,97599.81
2022-08-25T05:31:50.069Z,97597.13
2022-08-25T05:34:19.935Z,97604.06
2022-08-25T05:36:48.672Z,97602.28
2022-08-25T05:39:16.440Z,97617.09
2022-08-25T05:41:44.204Z,97610.94
2022-08-25T05:44:12.796Z,97605.09
2022-08-25T05:46:40.193Z,97603.81
2022-08-25T05:49:07.536Z,97609.19
2022-08-25T05:51:34.866Z,97609.19
2022-08-25T05:54:02.306Z,97609.41
2022-08-25T05:56:29.713Z,97612.69
2022-08-25T05:58:57.144Z,97616.16
2022-08-25T06:01:48.135Z,97619.88
2022-08-25T06:04:20.373Z,97609.28
2022-08-25T06:06:49.023Z,97605.63
2022-08-25T06:09:16.352Z,97608.63
2022-08-25T06:11:43.769Z,97607.19
2022-08-25T06:14:11.865Z,97610.19
2022-08-25T06:16:40.440Z,97609.75
2022-08-25T06:19:11.959Z,97613.06
2022-08-25T06:21:39.519Z,97610.38
2022-08-25T06:24:13.304Z,97615.03
2022-08-25T06:26:43.355Z,97613.19
2022-08-25T06:29:10.608Z,97613.31
2022-08-25T06:31:38.093Z,97614.31
2022-08-25T06:34:06.341Z,97619.28
2022-08-25T06:36:34.667Z,97617.63
2022-08-25T06:39:02.092Z,97616.91
2022-08-25T06:41:36.861Z,97619.66
2022-08-25T06:44:05.973Z,97623.69
2022-08-25T06:46:35.836Z,97622.88
2022-08-25T06:49:06.723Z,97627.00
2022-08-25T06:51:37.864Z,97625.16
2022-08-25T06:54:07.296Z,97629.28
2022-08-25T06:56:34.865Z,97623.38
2022-08-25T06:59:05.905Z,97628.22
2022-08-25T07:01:33.975Z,97629.78
2022-08-25T07:04:10.057Z,97628.34
2022-08-25T07:06:39.936Z,97631.72
2022-08-25T07:09:10.311Z,97629.00
2022-08-25T07:11:38.077Z,97627.78
2022-08-25T07:14:08.392Z,97624.59
2022-08-25T07:16:35.842Z,97629.72
2022-08-25T07:19:05.460Z,97628.66
2022-08-25T07:21:36.357Z,97630.50
2022-08-25T07:24:10.943Z,97632.88
2022-08-25T07:26:40.605Z,97633.88
2022-08-25T07:29:31.681Z,97638.38
2022-08-25T07:32:01.590Z,97629.06
2022-08-25T07:34:51.877Z,97627.72
2022-08-25T07:40:22.860Z,97633.78
2022-08-25T07:42:51.927Z,97643.56
2022-08-25T07:45:21.113Z,97636.59
2022-08-25T07:47:51.592Z,97637.84
2022-08-25T07:50:20.211Z,97641.19
2022-08-25T07:52:52.153Z,97635.16
2022-08-25T07:55:27.157Z,97632.91
2022-08-25T07:58:05.835Z,97630.88
2022-08-25T08:00:36.950Z,97632.22
2022-08-25T08:03:12.851Z,97631.00
2022-08-25T08:05:47.789Z,97629.72
2022-08-25T08:08:16.673Z,97620.78
2022-08-25T08:11:04.577Z,97622.84
2022-08-25T08:13:36.775Z,97631.34
2022-08-25T08:16:13.459Z,97633.19
2022-08-25T08:18:43.134Z,97628.94
2022-08-25T08:21:34.746Z,97630.00
2022-08-25T08:24:10.647Z,97620.41
2022-08-25T08:26:57.787Z,97625.28
2022-08-25T08:29:26.011Z,97627.47
2022-08-25T08:31:53.540Z,97619.66
2022-08-25T08:34:24.865Z,97616.72
2022-08-25T08:36:53.659Z,97628.72
2022-08-25T08:39:21.517Z,97622.81
2022-08-25T08:42:22.384Z,97626.31
2022-08-25T08:45:13.365Z,97622.03
2022-08-25T08:48:22.850Z,97629.53
2022-08-25T08:51:02.295Z,97628.31
2022-08-25T08:53:59.330Z,97628.31
2022-08-25T08:56:36.644Z,97630.50
2022-08-25T08:59:19.539Z,97633.63
2022-08-25T09:02:00.254Z,97629.88
2022-08-25T09:04:46.962Z,97635.63
2022-08-25T09:07:42.262Z,97637.28
2022-08-25T09:10:11.071Z,97633.00
2022-08-25T09:12:49.477Z,97632.97
2022-08-25T09:15:59.617Z,97633.44
2022-08-25T09:19:23.390Z,97639.38
2022-08-25T09:22:35.497Z,97639.94
2022-08-25T09:25:48.586Z,97640.31
2022-08-25T09:28:51.382Z,97645.94
2022-08-25T09:31:41.339Z,97642.66
2022-08-25T09:34:19.207Z,97643.09
2022-08-25T09:36:48.785Z,97640.59
2022-08-25T09:39:16.376Z,97634.63
2022-08-25T09:41:53.157Z,97634.78
2022-08-25T09:44:31.825Z,97637.59
2022-08-25T09:47:15.063Z,97632.47
2022-08-25T09:49:56.465Z,97632.72
2022-08-25T09:52:28.668Z,97626.59
2022-08-25T09:55:02.606Z,97626.50
2022-08-25T09:57:43.296Z,97635.25
2022-08-25T10:00:19.317Z,97638.66
2022-08-25T10:03:22.656Z,97625.84
2022-08-25T10:06:13.333Z,97620.56
2022-08-25T10:08:43.908Z,97610.53
2022-08-25T10:11:30.699Z,97609.91
2022-08-25T10:14:31.357Z,97604.94
2022-08-25T10:17:31.691Z,97603.78
2022-08-25T10:20:09.787Z,97601.47
2022-08-25T10:22:39.200Z,97596.72
2022-08-25T10:25:13.840Z,97590.31
2022-08-25T10:28:26.883Z,97599.44
2022-08-25T10:31:29.312Z,97583.91
2022-08-25T10:34:31.904Z,97585.06
2022-08-25T10:37:40.349Z,97589.28
2022-08-25T10:40:28.646Z,97593.44
2022-08-25T10:43:07.928Z,97591.63
2022-08-25T10:45:46.134Z,97588.63
2022-08-25T10:48:50.644Z,97592.28
2022-08-25T10:51:55.440Z,97588.34
2022-08-25T10:54:31.101Z,97589.75
2022-08-25T10:57:43.756Z,97580.09
2022-08-25T11:00:28.741Z,97573.00
2022-08-25T11:03:26.705Z,97573.06
2022-08-25T11:06:06.432Z,97560.66
2022-08-25T11:08:57.579Z,97561.47
2022-08-25T11:11:37.424Z,97557.84
2022-08-25T11:14:22.725Z,97564.72
2022-08-25T11:17:18.556Z,97550.59
2022-08-25T11:19:51.896Z,97546.03
2022-08-25T11:23:06.007Z,97549.53
2022-08-25T11:25:45.947Z,97551.91
2022-08-25T11:28:54.073Z,97543.75
2022-08-25T11:31:23.052Z,97541.88
2022-08-25T11:33:51.783Z,97540.53
2022-08-25T11:36:29.624Z,97532.88
2022-08-25T11:39:32.877Z,97525.88
2022-08-25T11:42:43.324Z,97530.78
2022-08-25T11:45:40.077Z,97525.03
2022-08-25T11:48:39.305Z,97518.16
2022-08-25T11:51:27.558Z,97524.66
2022-08-25T11:54:28.451Z,97507.91
2022-08-25T11:57:08.962Z,97502.25
2022-08-25T11:59:51.624Z,97495.78
2022-08-25T12:02:40.659Z,97500.44
2022-08-25T12:05:22.297Z,97497.16
2022-08-25T12:08:24.221Z,97491.22
2022-08-25T12:11:03.088Z,97497.41
2022-08-25T12:13:51.564Z,97494.81
2022-08-25T12:16:57.339Z,97493.28
2022-08-25T12:19:36.847Z,97485.88
2022-08-25T12:22:05.720Z,97492.56
2022-08-25T12:24:47.690Z,97486.88
2022-08-25T12:28:09.212Z,97493.81
2022-08-25T12:31:33.563Z,97488.00
2022-08-25T12:34:48.198Z,97490.78
2022-08-25T12:37:23.670Z,97478.72
2022-08-25T12:39:50.994Z,97476.41
2022-08-25T12:42:36.113Z,97480.34
2022-08-25T12:45:35.370Z,97482.16
2022-08-25T12:48:26.967Z,97475.97
2022-08-25T12:51:05.440Z,97484.66
2022-08-25T12:54:15.847Z,97477.50
2022-08-25T12:56:52.693Z,97469.19
2022-08-25T12:59:36.654Z,97470.03
2022-08-25T13:02:49.652Z,97470.44
2022-08-25T13:05:48.113Z,97466.53
2022-08-25T13:08:49.030Z,97467.63
2022-08-25T13:11:49.768Z,97465.75
2022-08-25T13:14:38.196Z,97457.63
2022-08-25T13:17:07.499Z,97457.63
2022-08-25T13:19:38.508Z,97446.31
2022-08-25T13:22:17.768Z,97447.84
2022-08-25T13:24:50.487Z,97443.16
2022-08-25T13:27:30.171Z,97443.59
2022-08-25T13:30:03.542Z,97443.63
2022-08-25T13:32:38.352Z,97437.03
2022-08-25T13:35:21.665Z,97439.66
2022-08-25T13:37:50.396Z,97443.56
2022-08-25T13:40:33.807Z,97435.03
2022-08-25T13:43:09.837Z,97426.56
2022-08-25T13:45:45.961Z,97429.63
2022-08-25T13:48:31.097Z,97438.94
2022-08-25T13:51:18.737Z,97442.81
2022-08-25T13:53:53.631Z,97432.72
2022-08-25T13:56:42.046Z,97431.97
2022-08-25T13:59:41.540Z,97433.13
2022-08-25T14:02:19.318Z,97430.41
2022-08-25T14:04:51.157Z,97425.75
2022-08-25T14:07:22.533Z,97418.38
2022-08-25T14:10:11.810Z,97427.28
2022-08-25T14:12:46.821Z,97422.63
2022-08-25T14:15:17.260Z,97423.00
2022-08-25T14:18:02.326Z,97413.31
2022-08-25T14:20:32.613Z,97418.75
2022-08-25T14:23:28.799Z,97412.19
2022-08-25T14:25:58.016Z,97407.50
2022-08-25T14:28:29.533Z,97403.63
2022-08-25T14:31:08.669Z,97399.72
2022-08-25T14:33:43.348Z,97393.09
2022-08-25T14:36:18.590Z,97399.31
2022-08-25T14:38:54.619Z,97400.53
2022-08-25T14:41:24.421Z,97408.31
2022-08-25T14:43:52.807Z,97395.03
2022-08-25T14:46:25.079Z,97388.44
2022-08-25T14:48:59.663Z,97390.00
2022-08-25T14:51:28.627Z,97396.59
2022-08-25T14:54:00.620Z,97388.44
2022-08-25T14:56:29.199Z,97389.22
2022-08-25T14:58:57.403Z,97382.63
2022-08-25T15:01:30.098Z,97375.59
2022-08-25T15:04:19.067Z,97381.81
2022-08-25T15:06:50.444Z,97388.03
2022-08-25T15:09:21.106Z,97379.09
2022-08-25T15:11:52.685Z,97371.31
2022-08-25T15:14:28.460Z,97369.38
2022-08-25T15:16:58.019Z,97365.91
2022-08-25T15:19:27.130Z,97367.47
2022-08-25T15:21:58.007Z,97365.50
2022-08-25T15:24:28.185Z,97373.66
2022-08-25T15:27:03.933Z,97378.72
2022-08-25T15:29:37.525Z,97379.81
2022-08-25T15:32:07.256Z,97379.75
2022-08-25T15:34:36.715Z,97373.50
2022-08-25T15:37:14.849Z,97381.31
2022-08-25T15:39:44.890Z,97375.09
2022-08-25T15:42:12.691Z,97378.97
2022-08-25T15:44:41.266Z,97378.53
2022-08-25T15:47:12.604Z,97384.25
2022-08-25T15:49:40.235Z,97375.97
2022-08-25T15:52:07.587Z,97373.59
2022-08-25T15:54:34.892Z,97370.09
2022-08-25T15:57:03.904Z,97369.66
2022-08-25T15:59:40.270Z,97364.19
2022-08-25T16:02:15.062Z,97366.00
2022-08-25T16:04:43.016Z,97363.53
2022-08-25T16:07:13.363Z,97358.03
2022-08-25T16:09:41.899Z,97363.44
2022-08-25T16:12:09.304Z,97369.94
2022-08-25T16:14:38.718Z,97352.84
2022-08-25T16:17:06.711Z,97350.44
2022-08-25T16:19:34.489Z,97351.56
2022-08-25T16:22:06.696Z,97351.09
2022-08-25T16:24:40.810Z,97338.69
2022-08-25T16:27:11.458Z,97338.66
2022-08-25T16:29:42.798Z,97344.06
2022-08-25T16:32:13.392Z,97341.41
2022-08-25T16:34:42.009Z,97346.34
2022-08-25T16:37:09.328Z,97342.34
2022-08-25T16:39:37.352Z,97344.88
2022-08-25T16:42:07.544Z,97335.41
2022-08-25T16:44:35.364Z,97338.63
2022-08-25T16:47:03.247Z,97341.16
2022-08-25T16:49:31.140Z,97351.06
2022-08-25T16:51:58.433Z,97349.00
2022-08-25T16:54:45.662Z,97350.38
2022-08-25T16:57:13.181Z,97356.84
2022-08-25T16:59:42.613Z,97343.56
2022-08-25T17:02:12.235Z,97347.81
2022-08-25T17:04:40.842Z,97344.97
2022-08-25T17:07:08.296Z,97338.25
2022-08-25T17:09:37.197Z,97337.00
2022-08-25T17:12:05.498Z,97329.84
2022-08-25T17:14:33.169Z,97335.34
2022-08-25T17:17:01.057Z,97332.47
2022-08-25T17:19:28.460Z,97330.00
2022-08-25T17:21:55.872Z,97329.50
2022-08-25T17:24:29.498Z,97325.47
2022-08-25T17:27:01.379Z,97325.66
2022-08-25T17:29:29.498Z,97328.81
2022-08-25T17:31:57.630Z,97330.16
2022-08-25T17:34:25.649Z,97331.84
2022-08-25T17:36:54.710Z,97334.41
2022-08-25T17:39:22.882Z,97336.25
2022-08-25T17:41:51.092Z,97336.19
2022-08-25T17:44:19.573Z,97332.34
2022-08-25T17:46:47.979Z,97342.06
2022-08-25T17:49:17.454Z,97343.53
2022-08-25T17:51:45.729Z,97340.78
2022-08-25T17:54:14.357Z,97344.44
2022-08-25T17:56:42.185Z,97343.59
2022-08-25T17:59:10.358Z,97343.97
2022-08-25T18:01:40.233Z,97343.78
2022-08-25T18:04:09.873Z,97343.97
2022-08-25T18:06:46.665Z,97350.00
2022-08-25T18:09:15.409Z,97348.56
2022-08-25T18:11:43.087Z,97348.16
2022-08-25T18:14:11.713Z,97341.44
2022-08-25T18:16:40.898Z,97344.06
2022-08-25T18:19:10.970Z,97333.56
2022-08-25T18:21:39.559Z,97348.16
2022-08-25T18:24:08.082Z,97351.09
2022-08-25T18:26:36.153Z,97349.56
2022-08-25T18:29:04.506Z,97348.41
2022-08-25T18:31:32.493Z,97352.13
2022-08-25T18:34:00.045Z,97357.78
2022-08-25T18:36:27.960Z,97348.94
2022-08-25T18:39:13.833Z,97355.69
2022-08-25T18:41:42.778Z,97350.47
2022-08-25T18:44:12.652Z,97360.38
2022-08-25T18:46:45.399Z,97359.16
2022-08-25T18:49:15.828Z,97364.00
2022-08-25T18:51:45.194Z,97356.63
2022-08-25T18:54:23.035Z,97368.88
2022-08-25T18:56:53.416Z,97369.44
2022-08-25T18:59:23.822Z,97369.31
2022-08-25T19:01:54.024Z,97365.84
2022-08-25T19:04:28.303Z,97365.31
2022-08-25T19:07:00.255Z,97366.88
2022-08-25T19:09:28.031Z,97366.44
2022-08-25T19:11:56.131Z,97364.97
2022-08-25T19:14:23.814Z,97370.59
2022-08-25T19:16:54.597Z,97369.97
2022-08-25T19:19:23.473Z,97364.50
2022-08-25T19:21:51.067Z,97362.91
2022-08-25T19:24:19.349Z,97361.69
2022-08-25T19:26:51.385Z,97364.63
2022-08-25T19:29:23.244Z,97357.00
2022-08-25T19:31:51.644Z,97361.69
2022-08-25T19:34:28.403Z,97359.69
2022-08-25T19:37:00.792Z,97355.78
2022-08-25T19:39:28.961Z,97363.94
2022-08-25T19:41:58.644Z,97364.19
2022-08-25T19:44:27.754Z,97368.78
2022-08-25T19:46:56.323Z,97358.16
2022-08-25T19:49:31.694Z,97364.88
2022-08-25T19:52:03.421Z,97352.16
2022-08-25T19:54:36.232Z,97355.03
2022-08-25T19:57:07.777Z,97353.78
2022-08-25T19:59:43.159Z,97356.03
2022-08-25T20:02:28.338Z,97357.72
2022-08-25T20:05:01.522Z,97350.69
2022-08-25T20:07:31.701Z,97342.53
2022-08-25T20:10:01.599Z,97344.09
2022-08-25T20:12:29.703Z,97342.31
2022-08-25T20:14:57.981Z,97341.41
2022-08-25T20:17:28.189Z,97338.06
2022-08-25T20:19:58.438Z,97333.59
2022-08-25T20:22:29.821Z,97334.38
2022-08-25T20:25:01.823Z,97334.25
2022-08-25T20:27:37.556Z,97335.16
2022-08-25T20:30:20.014Z,97330.81
2022-08-25T20:32:47.669Z,97335.72
2022-08-25T20:35:16.681Z,97333.81
2022-08-25T20:37:47.653Z,97334.25
2022-08-25T20:40:20.057Z,97326.19
2022-08-25T20:42:53.889Z,97333.59
2022-08-25T20:45:22.832Z,97336.09
2022-08-25T20:47:50.654Z,97331.69
2022-08-25T20:50:22.995Z,97335.03
2022-08-25T20:52:52.114Z,97330.78
2022-08-25T20:55:19.932Z,97339.88
2022-08-25T20:57:48.670Z,97340.78
2022-08-25T21:00:17.731Z,97340.22
2022-08-25T21:02:46.467Z,97334.97
2022-08-25T21:05:14.584Z,97338.88
2022-08-25T21:07:42.098Z,97341.78
2022-08-25T21:10:14.322Z,97354.09
2022-08-25T21:12:42.843Z,97341.13
2022-08-25T21:15:12.534Z,97346.94
2022-08-25T21:17:40.391Z,97343.59
2022-08-25T21:20:08.947Z,97347.94
2022-08-25T21:22:38.169Z,97346.03
2022-08-25T21:25:08.778Z,97340.00
2022-08-25T21:27:36.610Z,97353.44
2022-08-25T21:30:07.901Z,97346.16
2022-08-25T21:32:35.546Z,97347.59
2022-08-25T21:35:03.327Z,97344.13
2022-08-25T21:37:35.553Z,97342.88
2022-08-25T21:40:03.332Z,97343.59
2022-08-25T21:42:34.493Z,97344.56
2022-08-25T21:45:02.787Z,97348.38
2022-08-25T21:47:30.138Z,97339.88
2022-08-25T21:49:57.571Z,97342.56
2022-08-25T21:52:24.851Z,97338.06
2022-08-25T21:54:52.239Z,97329.81
2022-08-25T21:57:23.715Z,97330.47
2022-08-25T21:59:51.837Z,97327.00
2022-08-25T22:02:22.606Z,97325.31
2022-08-25T22:04:54.457Z,97325.84
2022-08-25T22:07:24.728Z,97318.00
2022-08-25T22:09:52.799Z,97321.47
2022-08-25T22:12:20.220Z,97323.31
2022-08-25T22:14:47.580Z,97321.91
2022-08-25T22:17:16.879Z,97326.94
2022-08-25T22:19:48.485Z,97319.38
2022-08-25T22:22:21.960Z,97317.44
2022-08-25T22:24:49.429Z,97317.78
2022-08-25T22:27:17.995Z,97317.16
2022-08-25T22:29:45.449Z,97316.03
2022-08-25T22:32:13.773Z,97312.31
2022-08-25T22:34:41.593Z,97311.97
2022-08-25T22:37:11.157Z,97312.19
2022-08-25T22:39:38.609Z,97303.47
2022-08-25T22:42:08.016Z,97301.91
2022-08-25T22:44:39.936Z,97299.22
2022-08-25T22:47:09.358Z,97306.50
2022-08-25T22:49:40.176Z,97303.69
2022-08-25T22:52:09.282Z,97295.41
2022-08-25T22:54:41.073Z,97297.41
2022-08-25T22:57:08.583Z,97288.66
2022-08-25T22:59:36.232Z,97294.47
2022-08-25T23:02:04.005Z,97292.38
2022-08-25T23:04:31.399Z,97288.44
2022-08-25T23:06:58.720Z,97283.41
2022-08-25T23:09:26.141Z,97290.00
2022-08-25T23:11:53.443Z,97288.78
2022-08-25T23:14:21.712Z,97283.03
2022-08-25T23:16:50.361Z,97281.69
2022-08-25T23:19:18.682Z,97281.25
2022-08-25T23:22:05.878Z,97270.72
2022-08-25T23:24:33.467Z,97268.81
2022-08-25T23:27:04.609Z,97268.38
2022-08-25T23:29:34.519Z,97271.59
2022-08-25T23:32:02.641Z,97273.69
2022-08-25T23:34:30.574Z,97261.28
2022-08-25T23:37:02.417Z,97266.06
2022-08-25T23:39:30.367Z,97261.81
2022-08-25T23:41:58.670Z,97268.16
2022-08-25T23:44:27.324Z,97265.03
2022-08-25T23:46:54.732Z,97260.00
2022-08-25T23:49:24.162Z,97258.72
2022-08-25T23:51:56.249Z,97259.19
2022-08-25T23:54:31.046Z,97254.31
2022-08-25T23:56:59.852Z,97260.00
2022-08-25T23:59:29.203Z,97256.53
